Time;durP1;ratioP1;P1;durP2;ratioP2;P2;SDS_P1;SDS_P2;PMS_P1;PMS_P2;Temp;Humidity;BMP_temperature;BMP_pressure;BME280_temperature;BME280_humidity;BME280_pressure;Samples;Min_cycle;Max_cycle;Signal;HPM_P1;HPM_P2
2021/05/17 00:01:49;;;;;;;4.80;1.70;;;18.30;57.90;;;;;;5052472;28;20198;-62
2021/05/17 00:04:15;;;;;;;1.85;1.60;;;18.20;57.80;;;;;;5034161;28;20193;-62
2021/05/17 00:06:41;;;;;;;1.48;1.38;;;18.20;57.80;;;;;;5052390;28;20259;-62
2021/05/17 00:09:07;;;;;;;1.50;1.40;;;18.20;57.80;;;;;;5052220;28;20298;-61
2021/05/17 00:11:33;;;;;;;1.85;1.75;;;18.20;57.80;;;;;;5051813;28;20187;-61
2021/05/17 00:13:58;;;;;;;2.33;1.52;;;18.20;57.80;;;;;;5052633;28;20625;-62
2021/05/17 00:16:24;;;;;;;1.48;1.38;;;18.20;57.80;;;;;;5052377;28;20175;-62
2021/05/17 00:18:50;;;;;;;1.58;1.45;;;18.20;57.80;;;;;;5051275;28;20171;-62
2021/05/17 00:21:15;;;;;;;1.70;1.52;;;18.20;57.80;;;;;;5034592;28;20171;-62
2021/05/17 00:23:41;;;;;;;1.45;1.35;;;18.20;57.80;;;;;;5052166;28;20663;-62
2021/05/17 00:26:07;;;;;;;1.77;1.30;;;18.20;57.80;;;;;;5051941;28;20183;-61
2021/05/17 00:28:32;;;;;;;1.38;1.27;;;18.20;57.80;;;;;;5052186;28;20171;-62
2021/05/17 00:30:58;;;;;;;1.40;1.30;;;18.20;57.80;;;;;;5052237;28;20708;-61
2021/05/17 00:33:24;;;;;;;1.75;1.58;;;18.20;57.80;;;;;;5051686;28;20536;-61
2021/05/17 00:35:50;;;;;;;1.65;1.50;;;18.20;57.80;;;;;;5052052;28;20198;-62
2021/05/17 00:38:20;;;;;;;1.60;1.50;;;18.20;57.80;;;;;;5034598;28;20175;-62
2021/05/17 00:40:45;;;;;;;1.77;1.38;;;18.20;57.80;;;;;;5051345;28;20179;-62
2021/05/17 00:43:11;;;;;;;1.50;1.40;;;18.20;57.80;;;;;;5052201;28;20164;-62
2021/05/17 00:45:36;;;;;;;1.60;1.50;;;18.20;57.80;;;;;;5034388;28;20266;-62
2021/05/17 00:48:02;;;;;;;1.80;1.42;;;18.20;57.80;;;;;;5051625;28;20199;-62
2021/05/17 00:50:28;;;;;;;1.77;1.58;;;18.10;57.80;;;;;;5052005;28;20302;-62
2021/05/17 00:52:54;;;;;;;2.30;1.58;;;18.10;57.80;;;;;;5051747;28;20221;-62
2021/05/17 00:55:20;;;;;;;1.70;1.50;;;18.10;57.80;;;;;;5055566;28;20578;-62
2021/05/17 00:57:45;;;;;;;1.70;1.60;;;18.10;57.80;;;;;;5055615;28;20178;-62
2021/05/17 01:00:13;;;;;;;1.95;1.20;;;18.20;57.80;;;;;;5055209;28;20175;-62
2021/05/17 01:02:39;;;;;;;1.77;1.67;;;18.10;57.80;;;;;;5055744;28;20262;-62
2021/05/17 01:05:05;;;;;;;1.67;1.50;;;18.10;57.80;;;;;;5038020;28;20626;-62
2021/05/17 01:07:30;;;;;;;1.60;1.42;;;18.10;57.80;;;;;;5054880;28;20178;-62
2021/05/17 01:09:57;;;;;;;1.27;1.17;;;18.10;57.80;;;;;;5037706;28;20580;-62
2021/05/17 01:12:24;;;;;;;1.60;1.35;;;18.10;57.90;;;;;;5055576;28;20653;-61
2021/05/17 01:14:51;;;;;;;1.83;1.20;;;18.10;57.80;;;;;;5037261;28;20178;-62
2021/05/17 01:17:17;;;;;;;1.42;1.33;;;18.10;57.80;;;;;;5055632;28;20171;-61
2021/05/17 01:19:55;;;;;;;1.48;1.35;;;18.00;57.70;;;;;;5055255;28;20186;-62
2021/05/17 01:22:22;;;;;;;1.67;1.35;;;18.10;57.80;;;;;;5054849;28;20175;-62
2021/05/17 01:24:48;;;;;;;1.85;1.45;;;18.10;57.80;;;;;;5055350;28;20190;-62
2021/05/17 01:27:13;;;;;;;1.48;1.15;;;18.10;57.80;;;;;;5055658;28;20172;-61
2021/05/17 01:29:40;;;;;;;1.38;1.10;;;18.00;57.80;;;;;;5054136;28;20207;-61
2021/05/17 01:32:08;;;;;;;2.83;1.50;;;18.00;57.80;;;;;;5055303;28;20183;-61
2021/05/17 01:34:38;;;;;;;1.30;1.20;;;18.10;57.80;;;;;;5054945;28;20212;-61
2021/05/17 01:37:03;;;;;;;1.83;1.50;;;18.10;57.90;;;;;;5054582;28;20528;-62
2021/05/17 01:39:29;;;;;;;1.40;1.30;;;18.10;57.90;;;;;;5037799;28;20739;-61
2021/05/17 01:41:55;;;;;;;1.50;1.40;;;18.10;57.90;;;;;;5036945;28;20579;-62
2021/05/17 01:44:22;;;;;;;1.30;1.20;;;18.10;57.90;;;;;;5054262;28;20179;-62
2021/05/17 01:46:48;;;;;;;1.35;1.20;;;18.00;57.90;;;;;;5054771;28;20183;-62
2021/05/17 01:49:14;;;;;;;1.30;1.20;;;18.00;57.90;;;;;;5054409;28;20217;-62
2021/05/17 01:51:43;;;;;;;1.50;1.40;;;18.10;57.90;;;;;;5054795;28;20183;-62
2021/05/17 01:54:09;;;;;;;1.27;1.17;;;18.00;57.90;;;;;;5055195;28;20191;-62
2021/05/17 01:56:35;;;;;;;1.20;1.10;;;18.00;57.90;;;;;;5036436;28;20171;-62
2021/05/17 01:59:00;;;;;;;1.23;1.13;;;18.00;57.90;;;;;;5037300;28;20217;-62
2021/05/17 02:01:26;;;;;;;1.20;1.10;;;18.00;57.90;;;;;;5054830;28;20217;-62
2021/05/17 02:03:51;;;;;;;1.50;1.40;;;18.00;57.80;;;;;;5053433;28;20175;-62
2021/05/17 02:06:17;;;;;;;1.25;1.15;;;18.00;57.90;;;;;;5054679;28;20263;-62
2021/05/17 02:08:44;;;;;;;1.50;1.40;;;18.00;57.90;;;;;;5054338;28;20211;-61
2021/05/17 02:11:11;;;;;;;1.30;1.20;;;18.00;57.90;;;;;;5054081;28;20179;-61
2021/05/17 02:13:37;;;;;;;1.20;1.10;;;18.00;57.80;;;;;;5054330;28;20224;-61
2021/05/17 02:16:02;;;;;;;1.67;1.42;;;18.00;57.90;;;;;;5054506;28;20183;-62
2021/05/17 02:18:28;;;;;;;1.52;1.20;;;18.00;57.90;;;;;;5053774;28;20172;-62
2021/05/17 02:20:54;;;;;;;1.55;1.45;;;18.00;57.90;;;;;;5054153;28;20181;-62
2021/05/17 02:23:19;;;;;;;1.58;1.20;;;18.00;57.90;;;;;;5054640;28;20168;-62
2021/05/17 02:25:49;;;;;;;1.25;1.15;;;18.00;57.90;;;;;;5053329;28;20179;-62
2021/05/17 02:28:15;;;;;;;1.42;1.33;;;18.00;57.90;;;;;;5054420;28;20178;-61
2021/05/17 02:30:41;;;;;;;1.23;1.13;;;17.90;57.90;;;;;;5053803;28;20231;-61
2021/05/17 02:33:07;;;;;;;1.30;1.20;;;18.00;57.90;;;;;;5053461;28;20643;-61
2021/05/17 02:35:32;;;;;;;2.08;1.17;;;18.00;57.90;;;;;;5054027;28;20182;-62
2021/05/17 02:37:58;;;;;;;1.30;1.20;;;18.00;57.90;;;;;;5054292;28;20183;-62
2021/05/17 02:40:24;;;;;;;1.30;1.20;;;18.00;57.90;;;;;;5053342;28;20590;-62
2021/05/17 02:42:49;;;;;;;1.48;1.38;;;18.00;58.00;;;;;;5053767;28;20163;-62
2021/05/17 02:45:17;;;;;;;1.17;1.08;;;17.90;57.90;;;;;;5053888;28;20571;-62
2021/05/17 02:47:42;;;;;;;1.00;1.00;;;17.90;57.90;;;;;;5052961;28;20178;-62
2021/05/17 02:50:10;;;;;;;0.98;0.98;;;17.90;57.90;;;;;;5053688;28;20215;-62
2021/05/17 02:52:36;;;;;;;1.30;1.20;;;17.90;58.00;;;;;;5053073;28;20179;-62
2021/05/17 02:55:08;;;;;;;0.90;0.90;;;17.90;58.00;;;;;;5053772;28;20224;-62
2021/05/17 02:57:57;;;;;;;1.33;1.23;;;17.90;57.90;;;;;;5053661;28;20191;-62
2021/05/17 03:00:23;;;;;;;1.17;1.10;;;17.90;58.00;;;;;;5035047;28;20232;-62
2021/05/17 03:03:02;;;;;;;1.25;1.15;;;17.90;57.90;;;;;;5035372;28;20274;-62
2021/05/17 03:05:28;;;;;;;1.00;1.00;;;17.90;57.90;;;;;;5053705;28;20309;-62
2021/05/17 03:08:00;;;;;;;1.10;1.10;;;17.90;58.00;;;;;;5052563;28;20175;-62
2021/05/17 03:10:26;;;;;;;1.42;1.33;;;17.90;58.00;;;;;;5053343;28;20281;-62
2021/05/17 03:12:58;;;;;;;1.00;1.00;;;17.90;57.90;;;;;;5053414;28;20175;-61
2021/05/17 03:15:26;;;;;;;1.60;1.25;;;17.90;58.00;;;;;;5035054;28;20213;-62
2021/05/17 03:17:55;;;;;;;1.30;1.20;;;17.80;57.90;;;;;;5052382;28;20167;-62
2021/05/17 03:20:20;;;;;;;1.40;1.00;;;17.90;58.00;;;;;;5036032;28;20317;-62
2021/05/17 03:22:50;;;;;;;1.20;1.10;;;17.90;58.00;;;;;;5052376;28;20262;-62
2021/05/17 03:25:16;;;;;;;1.05;1.00;;;17.80;58.00;;;;;;5053321;28;20175;-62
2021/05/17 03:27:42;;;;;;;1.00;1.00;;;17.90;58.00;;;;;;5034888;28;20178;-61
2021/05/17 03:30:08;;;;;;;1.83;1.15;;;17.80;58.00;;;;;;5035098;28;20227;-62
2021/05/17 03:32:33;;;;;;;0.90;0.90;;;17.80;58.00;;;;;;5052791;28;20171;-62
2021/05/17 03:34:59;;;;;;;1.20;1.10;;;17.80;58.60;;;;;;5052301;28;20171;-62
2021/05/17 03:37:24;;;;;;;1.77;0.98;;;17.80;58.00;;;;;;5053009;28;20210;-62
2021/05/17 03:39:50;;;;;;;1.27;1.17;;;17.80;58.00;;;;;;5052610;28;20310;-62
2021/05/17 03:42:15;;;;;;;1.38;1.27;;;17.80;58.00;;;;;;5052231;28;20233;-63
2021/05/17 03:44:41;;;;;;;1.10;1.00;;;17.80;58.00;;;;;;5052782;28;20190;-62
2021/05/17 03:47:06;;;;;;;1.45;1.35;;;17.80;58.00;;;;;;5052747;28;20228;-63
2021/05/17 03:49:32;;;;;;;1.20;1.20;;;17.80;58.00;;;;;;5051909;28;20211;-62
2021/05/17 03:51:57;;;;;;;1.45;1.30;;;17.80;58.00;;;;;;5052782;28;20167;-62
2021/05/17 03:54:23;;;;;;;1.13;1.02;;;17.80;58.00;;;;;;5052649;28;20175;-62
2021/05/17 03:56:48;;;;;;;1.27;1.17;;;17.80;58.00;;;;;;5051801;28;20175;-62
2021/05/17 03:59:16;;;;;;;1.23;1.13;;;17.80;58.00;;;;;;5052722;28;20270;-62
2021/05/17 04:01:42;;;;;;;1.00;1.00;;;17.80;58.00;;;;;;5052350;28;20205;-62
2021/05/17 04:04:08;;;;;;;1.48;1.25;;;17.80;58.00;;;;;;5051894;28;20187;-63
2021/05/17 04:06:47;;;;;;;1.05;1.00;;;17.80;58.00;;;;;;5052279;28;20258;-62
2021/05/17 04:14:40;;;;;;;0.88;0.88;;;17.80;58.00;;;;;;5052634;28;20170;-62
2021/05/17 04:17:06;;;;;;;1.30;1.20;;;17.80;58.00;;;;;;5051633;28;20175;-62
2021/05/17 04:19:31;;;;;;;1.02;1.00;;;17.80;58.00;;;;;;5052360;28;20523;-63
2021/05/17 04:21:57;;;;;;;1.08;1.00;;;17.80;58.00;;;;;;5052546;28;20171;-62
2021/05/17 04:24:22;;;;;;;1.00;1.00;;;17.80;58.00;;;;;;5051911;28;20199;-62
2021/05/17 04:26:48;;;;;;;1.25;1.15;;;17.80;57.90;;;;;;5052207;28;20257;-62
2021/05/17 04:29:13;;;;;;;1.30;1.20;;;17.80;58.00;;;;;;5056236;28;20280;-62
2021/05/17 04:31:39;;;;;;;0.85;0.85;;;17.80;58.00;;;;;;5055283;28;20246;-62
2021/05/17 04:34:04;;;;;;;1.20;1.10;;;17.80;58.00;;;;;;5056156;28;20700;-62
2021/05/17 04:36:31;;;;;;;1.40;0.85;;;17.80;58.00;;;;;;5056327;28;20177;-62
2021/05/17 04:39:00;;;;;;;1.02;1.00;;;17.70;57.90;;;;;;5055672;28;20175;-62
2021/05/17 04:41:26;;;;;;;1.27;0.90;;;17.80;58.00;;;;;;5056396;28;20171;-63
2021/05/17 04:43:52;;;;;;;1.10;1.00;;;17.70;58.60;;;;;;5055813;28;20641;-63
2021/05/17 04:46:17;;;;;;;1.35;1.05;;;17.70;57.90;;;;;;5055471;28;20193;-63
2021/05/17 04:48:49;;;;;;;1.52;1.15;;;17.80;58.00;;;;;;5056022;28;20258;-62
2021/05/17 04:51:19;;;;;;;1.08;0.98;;;17.80;58.00;;;;;;5056315;28;20175;-62
2021/05/17 04:53:44;;;;;;;2.03;1.17;;;17.70;57.90;;;;;;5055109;28;20171;-62
2021/05/17 04:56:10;;;;;;;1.20;1.10;;;17.80;58.00;;;;;;5056118;28;20179;-62
2021/05/17 04:58:36;;;;;;;0.82;0.82;;;17.80;58.00;;;;;;5055852;28;20171;-63
2021/05/17 05:01:01;;;;;;;1.48;1.10;;;17.70;57.90;;;;;;5055083;28;20179;-63
2021/05/17 05:03:27;;;;;;;1.10;1.10;;;17.80;58.00;;;;;;5056147;28;20311;-63
2021/05/17 05:05:52;;;;;;;1.00;0.80;;;17.70;58.00;;;;;;5055644;28;20183;-62
2021/05/17 05:08:18;;;;;;;0.90;0.90;;;17.70;57.90;;;;;;5055099;28;20660;-62
2021/05/17 05:10:43;;;;;;;1.38;1.00;;;17.80;58.00;;;;;;5055347;28;20214;-62
2021/05/17 05:13:09;;;;;;;1.92;1.10;;;17.70;57.90;;;;;;5055956;28;20167;-62
2021/05/17 05:15:34;;;;;;;1.00;1.00;;;17.70;57.90;;;;;;5054636;28;20178;-63
2021/05/17 05:18:00;;;;;;;1.35;1.00;;;17.70;57.90;;;;;;5055319;28;20175;-62
2021/05/17 05:20:27;;;;;;;0.85;0.85;;;17.70;57.90;;;;;;5054938;28;20638;-63
2021/05/17 05:22:52;;;;;;;1.67;0.93;;;17.70;58.00;;;;;;5055426;28;20187;-62
2021/05/17 05:25:19;;;;;;;1.02;1.02;;;17.70;57.90;;;;;;5055461;28;20178;-62
2021/05/17 05:27:48;;;;;;;1.13;1.02;;;17.70;57.90;;;;;;5054396;28;20186;-62
2021/05/17 05:33:17;;;;;;;0.75;0.75;;;17.70;57.90;;;;;;5055196;28;20264;-62
2021/05/17 05:35:43;;;;;;;1.17;1.00;;;17.70;57.90;;;;;;5054231;28;20220;-62
2021/05/17 05:38:09;;;;;;;1.15;1.02;;;17.70;57.90;;;;;;5055186;28;20179;-63
2021/05/17 05:40:35;;;;;;;0.82;0.82;;;17.70;57.90;;;;;;5053908;28;20545;-63
2021/05/17 05:43:00;;;;;;;1.92;1.10;;;17.70;57.90;;;;;;5054385;28;20175;-63
2021/05/17 05:45:26;;;;;;;0.93;0.93;;;17.70;57.90;;;;;;5055093;28;20203;-63
2021/05/17 05:47:51;;;;;;;0.80;0.80;;;17.70;57.90;;;;;;5054632;28;20254;-63
2021/05/17 05:50:17;;;;;;;1.02;1.02;;;17.70;57.90;;;;;;5054360;28;20713;-62
2021/05/17 05:52:42;;;;;;;1.30;1.20;;;17.70;57.90;;;;;;5054591;28;20189;-62
2021/05/17 05:55:08;;;;;;;1.10;1.08;;;17.70;57.90;;;;;;5054738;28;20167;-63
2021/05/17 05:57:43;;;;;;;1.05;0.98;;;17.70;57.90;;;;;;5054113;28;20167;-63
2021/05/17 06:00:11;;;;;;;0.93;0.90;;;17.70;57.90;;;;;;5055078;28;20167;-63
2021/05/17 06:02:38;;;;;;;1.10;1.10;;;17.70;58.00;;;;;;5053557;28;20719;-63
2021/05/17 06:05:05;;;;;;;1.05;0.82;;;17.70;58.50;;;;;;5054511;28;20306;-63
2021/05/17 06:07:30;;;;;;;1.30;1.20;;;17.70;57.90;;;;;;5054528;28;20649;-62
2021/05/17 06:09:56;;;;;;;0.95;0.88;;;17.70;57.90;;;;;;5053513;28;20318;-62
2021/05/17 06:12:22;;;;;;;1.23;1.10;;;17.70;57.90;;;;;;5054754;28;20194;-62
2021/05/17 06:14:52;;;;;;;1.38;1.27;;;17.70;57.90;;;;;;5054414;28;20183;-62
2021/05/17 06:17:18;;;;;;;0.93;0.90;;;17.70;57.90;;;;;;5053999;28;20201;-63
2021/05/17 06:19:43;;;;;;;1.08;0.90;;;17.70;57.90;;;;;;5054004;28;20183;-63
2021/05/17 06:22:09;;;;;;;1.27;1.13;;;17.70;57.90;;;;;;5054296;28;20173;-63
2021/05/17 06:24:35;;;;;;;1.05;1.00;;;17.70;57.90;;;;;;5035856;28;20633;-63
2021/05/17 06:27:01;;;;;;;0.98;0.82;;;17.70;58.00;;;;;;5054615;28;20633;-63
2021/05/17 06:29:26;;;;;;;0.90;0.90;;;17.70;58.00;;;;;;5036422;28;20203;-62
2021/05/17 06:31:52;;;;;;;1.73;0.90;;;17.70;57.90;;;;;;5052829;28;20690;-62
2021/05/17 06:34:18;;;;;;;1.58;0.98;;;17.80;58.00;;;;;;5036396;28;20179;-62
2021/05/17 06:36:43;;;;;;;1.70;1.00;;;17.80;58.00;;;;;;5053654;28;20167;-62
2021/05/17 06:39:10;;;;;;;8.77;1.58;;;17.80;58.00;;;;;;5053556;28;20409;-65
2021/05/17 06:41:36;;;;;;;4.25;1.17;;;17.80;58.30;;;;;;5053501;28;20328;-68
2021/05/17 06:44:02;;;;;;;3.13;1.10;;;17.80;58.30;;;;;;5053736;28;20183;-68
2021/05/17 06:46:27;;;;;;;5.50;1.30;;;17.80;58.20;;;;;;5053079;28;20201;-68
2021/05/17 06:48:53;;;;;;;4.90;1.33;;;17.80;58.20;;;;;;5035358;28;20172;-69
2021/05/17 06:51:19;;;;;;;7.70;1.40;;;17.80;58.20;;;;;;5052284;28;20233;-67
2021/05/17 06:53:45;;;;;;;3.33;1.10;;;17.80;58.10;;;;;;5052647;28;20225;-68
2021/05/17 06:56:19;;;;;;;3.33;1.40;;;17.90;58.10;;;;;;5053670;28;20183;-67
2021/05/17 07:01:20;;;;;;;5.95;1.08;;;17.90;58.20;;;;;;5053614;28;20175;-67
2021/05/17 07:03:45;;;;;;;2.00;1.25;;;17.90;58.40;;;;;;5053408;28;20540;-69
2021/05/17 07:06:12;;;;;;;5.43;1.65;;;17.90;58.40;;;;;;5053154;28;20179;-70
2021/05/17 07:11:40;;;;;;;2.65;1.33;;;17.90;58.40;;;;;;5024654;28;20173;-69
2021/05/17 07:14:06;;;;;;;3.70;1.30;;;17.90;58.40;;;;;;5052639;28;20171;-70
2021/05/17 07:16:31;;;;;;;6.10;1.50;;;17.90;58.50;;;;;;5053003;28;20179;-71
2021/05/17 07:18:57;;;;;;;2.15;1.33;;;17.90;58.50;;;;;;5035344;28;20183;-72
2021/05/17 07:23:48;;;;;;;1.77;1.02;;;17.90;58.50;;;;;;5053043;28;20688;-70
2021/05/17 07:26:17;;;;;;;3.75;1.25;;;17.90;58.50;;;;;;5053418;28;20179;-69
2021/05/17 07:28:44;;;;;;;3.70;1.38;;;17.90;58.40;;;;;;5052292;28;20171;-69
2021/05/17 07:31:15;;;;;;;2.00;1.27;;;17.90;58.50;;;;;;5052957;28;20261;-69
2021/05/17 07:33:40;;;;;;;2.65;1.38;;;17.90;58.50;;;;;;5052036;28;20242;-64
2021/05/17 07:36:06;;;;;;;3.30;1.40;;;17.90;58.50;;;;;;5051981;28;20270;-65
2021/05/17 07:38:32;;;;;;;2.35;1.17;;;17.90;58.50;;;;;;5051898;28;20590;-64
2021/05/17 07:40:59;;;;;;;1.08;0.90;;;17.90;58.40;;;;;;5051818;28;20209;-64
2021/05/17 07:43:25;;;;;;;1.58;1.27;;;17.90;58.40;;;;;;5053031;28;20175;-63
2021/05/17 07:45:51;;;;;;;11.38;1.52;;;17.90;58.40;;;;;;5052787;28;20170;-65
2021/05/17 07:48:16;;;;;;;5.63;1.88;;;17.90;58.60;;;;;;5052414;28;20178;-69
2021/05/17 07:50:42;;;;;;;4.28;1.20;;;17.90;58.50;;;;;;5052592;28;20222;-66
2021/05/17 07:53:08;;;;;;;2.70;1.13;;;17.90;58.80;;;;;;5052905;28;20175;-65
2021/05/17 07:55:33;;;;;;;6.43;1.23;;;17.90;58.70;;;;;;5051613;28;20645;-65
2021/05/17 07:57:59;;;;;;;2.63;1.33;;;17.90;58.50;;;;;;5052718;28;20532;-65
2021/05/17 08:00:24;;;;;;;3.78;1.65;;;18.00;58.50;;;;;;5052773;28;20213;-65
2021/05/17 08:02:50;;;;;;;5.82;1.60;;;18.00;58.50;;;;;;5051549;28;20688;-67
2021/05/17 08:05:17;;;;;;;3.80;1.20;;;18.00;58.50;;;;;;5052804;28;20179;-66
2021/05/17 08:07:42;;;;;;;2.65;1.50;;;18.00;58.50;;;;;;5052382;28;20241;-69
2021/05/17 08:10:10;;;;;;;7.43;1.52;;;18.00;58.80;;;;;;5051758;28;20207;-68
2021/05/17 08:12:36;;;;;;;2.53;1.02;;;18.00;58.50;;;;;;5052247;28;20174;-69
2021/05/17 08:15:02;;;;;;;2.45;1.17;;;18.00;58.50;;;;;;5052358;28;20257;-70
2021/05/17 08:17:27;;;;;;;4.28;1.15;;;18.00;58.50;;;;;;5051980;28;20232;-70
2021/05/17 08:19:53;;;;;;;3.40;1.45;;;18.00;58.60;;;;;;5052163;28;20197;-70
2021/05/17 08:22:18;;;;;;;2.97;1.50;;;18.00;58.60;;;;;;5052382;28;20171;-70
2021/05/17 08:24:44;;;;;;;3.05;1.40;;;18.00;58.60;;;;;;5051401;28;20175;-69
2021/05/17 08:27:09;;;;;;;3.03;1.30;;;18.00;58.50;;;;;;5052404;28;20167;-68
2021/05/17 08:29:36;;;;;;;2.78;1.23;;;18.00;58.50;;;;;;5052027;28;20214;-67
2021/05/17 08:32:03;;;;;;;3.58;1.52;;;18.00;58.50;;;;;;5052181;28;20190;-68
2021/05/17 08:34:29;;;;;;;2.35;1.45;;;18.00;58.50;;;;;;5052431;28;20186;-70
2021/05/17 08:36:58;;;;;;;1.98;1.02;;;18.00;58.40;;;;;;5051897;28;20638;-68
2021/05/17 08:39:24;;;;;;;4.72;1.23;;;18.00;58.50;;;;;;5051585;28;20183;-70
2021/05/17 08:41:49;;;;;;;2.35;1.20;;;18.00;58.50;;;;;;5051876;28;20225;-70
2021/05/17 08:44:15;;;;;;;2.75;1.23;;;18.10;58.60;;;;;;5033924;28;20171;-70
2021/05/17 08:46:46;;;;;;;4.13;1.85;;;18.00;58.50;;;;;;5052010;28;20202;-71
2021/05/17 08:49:12;;;;;;;3.55;1.48;;;18.10;58.60;;;;;;5052058;28;20561;-70
2021/05/17 08:51:38;;;;;;;2.97;1.20;;;18.10;58.60;;;;;;5051354;28;20237;-69
2021/05/17 08:54:06;;;;;;;3.08;0.93;;;18.10;58.60;;;;;;5052282;28;20250;-69
2021/05/17 08:56:32;;;;;;;4.47;1.25;;;18.10;58.60;;;;;;5052288;28;20228;-70
2021/05/17 08:59:02;;;;;;;2.03;1.00;;;18.10;58.60;;;;;;5051393;28;20255;-70
2021/05/17 09:01:28;;;;;;;3.15;1.30;;;18.10;58.60;;;;;;5052320;28;20281;-70
2021/05/17 09:03:54;;;;;;;2.08;1.50;;;18.10;58.60;;;;;;5051715;28;20187;-70
2021/05/17 09:06:22;;;;;;;3.00;1.40;;;18.10;58.60;;;;;;5051412;28;20210;-69
2021/05/17 09:08:48;;;;;;;4.22;1.23;;;18.10;58.50;;;;;;5034051;28;20358;-68
2021/05/17 09:11:14;;;;;;;4.07;1.75;;;18.20;58.50;;;;;;5052224;28;20179;-67
2021/05/17 09:13:42;;;;;;;2.40;1.13;;;18.30;58.30;;;;;;5033271;28;20250;-68
2021/05/17 09:16:07;;;;;;;1.80;1.10;;;18.40;58.20;;;;;;5055400;28;20622;-69
2021/05/17 09:18:33;;;;;;;2.72;1.23;;;18.40;57.90;;;;;;5055497;28;20183;-70
2021/05/17 09:20:59;;;;;;;2.10;1.05;;;18.40;57.90;;;;;;5055364;28;20258;-69
2021/05/17 09:23:27;;;;;;;2.55;1.25;;;18.50;57.80;;;;;;5055712;28;20187;-69
2021/05/17 09:26:14;;;;;;;2.13;1.10;;;18.50;57.80;;;;;;5055764;28;20183;-68
2021/05/17 09:28:41;;;;;;;2.95;1.20;;;18.40;58.50;;;;;;5054928;28;20195;-68
2021/05/17 09:31:07;;;;;;;2.13;1.30;;;18.40;58.00;;;;;;5055693;28;20708;-68
2021/05/17 09:33:49;;;;;;;2.50;1.30;;;18.40;58.20;;;;;;5054855;28;20171;-68
2021/05/17 09:36:37;;;;;;;2.40;1.40;;;18.50;58.00;;;;;;5056258;28;20175;-68
2021/05/17 09:39:04;;;;;;;2.35;1.30;;;18.50;57.80;;;;;;5055720;28;20182;-68
2021/05/17 09:41:43;;;;;;;1.63;1.05;;;18.50;57.90;;;;;;5054952;28;20171;-69
2021/05/17 09:44:09;;;;;;;3.90;1.00;;;18.40;58.00;;;;;;5055640;28;20187;-70
2021/05/17 09:46:54;;;;;;;1.23;1.00;;;18.40;58.10;;;;;;5055500;28;20171;-70
2021/05/17 09:49:30;;;;;;;2.28;1.35;;;18.40;58.30;;;;;;5055080;28;20207;-69
2021/05/17 09:52:08;;;;;;;2.33;0.98;;;18.40;58.20;;;;;;5055328;28;20175;-69
2021/05/17 09:54:53;;;;;;;1.48;0.90;;;18.40;58.20;;;;;;5054208;28;20251;-69
2021/05/17 09:57:22;;;;;;;1.20;0.90;;;18.40;58.20;;;;;;5055157;28;20186;-69
2021/05/17 09:59:49;;;;;;;1.30;1.10;;;18.40;58.10;;;;;;5054577;28;20175;-69
2021/05/17 10:02:40;;;;;;;4.63;1.67;;;18.40;58.20;;;;;;5054271;28;20202;-69
2021/05/17 10:05:13;;;;;;;2.83;1.15;;;18.40;58.20;;;;;;5054683;28;20179;-69
2021/05/17 10:07:39;;;;;;;1.98;0.90;;;18.40;58.30;;;;;;5054514;28;20266;-68
2021/05/17 10:10:06;;;;;;;1.30;1.20;;;18.40;58.20;;;;;;5053869;28;20297;-67
2021/05/17 10:12:31;;;;;;;2.13;1.20;;;18.50;58.10;;;;;;5054509;28;20210;-67
2021/05/17 10:14:57;;;;;;;1.95;0.95;;;18.50;58.10;;;;;;5054398;28;20175;-67
2021/05/17 10:17:22;;;;;;;2.83;0.95;;;18.50;58.10;;;;;;5053975;28;20534;-68
2021/05/17 10:19:48;;;;;;;1.40;1.13;;;18.60;58.10;;;;;;5053992;28;20214;-67
2021/05/17 10:22:13;;;;;;;1.25;1.00;;;18.60;58.00;;;;;;5054650;28;20187;-68
2021/05/17 10:24:39;;;;;;;2.42;1.00;;;18.60;58.00;;;;;;5053501;28;20179;-67
2021/05/17 10:27:05;;;;;;;1.05;0.90;;;18.50;58.10;;;;;;5053684;28;20755;-67
2021/05/17 10:29:34;;;;;;;3.38;1.33;;;18.50;58.10;;;;;;5036622;28;20744;-67
2021/05/17 10:32:00;;;;;;;1.98;0.80;;;18.50;58.30;;;;;;5035692;28;20198;-67
2021/05/17 10:34:26;;;;;;;1.45;1.10;;;18.50;58.30;;;;;;5054253;28;20648;-67
2021/05/17 10:37:01;;;;;;;2.75;1.08;;;18.50;58.20;;;;;;5053328;28;20175;-67
2021/05/17 10:39:42;;;;;;;2.00;1.00;;;18.60;58.20;;;;;;5054329;28;20205;-67
2021/05/17 10:48:11;;;;;;;3.30;1.20;;;18.60;58.10;;;;;;5033762;28;20234;-68
2021/05/17 10:50:38;;;;;;;2.40;1.08;;;18.50;58.30;;;;;;5033717;28;20220;-63
2021/05/17 10:53:03;;;;;;;1.98;1.00;;;18.50;58.30;;;;;;5033110;28;20211;-63
2021/05/17 10:55:29;;;;;;;4.60;1.45;;;18.50;58.30;;;;;;5033861;28;20206;-63
2021/05/17 11:00:29;;;;;;;3.95;1.25;;;18.50;58.50;;;;;;5034055;28;20176;-64
2021/05/17 11:03:25;;;;;;;2.42;1.30;;;18.60;58.40;;;;;;5033602;28;20553;-63
2021/05/17 11:05:53;;;;;;;1.73;1.13;;;18.60;58.30;;;;;;5003258;28;20196;-65
2021/05/17 11:08:18;;;;;;;3.67;1.30;;;18.60;58.30;;;;;;5033703;28;20179;-64
2021/05/17 11:10:51;;;;;;;2.83;0.88;;;18.60;58.30;;;;;;5033081;28;20223;-63
2021/05/17 11:13:21;;;;;;;4.13;1.00;;;18.60;58.30;;;;;;5033092;28;20214;-64
2021/05/17 11:15:51;;;;;;;6.25;1.15;;;18.60;58.30;;;;;;5033272;28;20168;-63
2021/05/17 11:18:16;;;;;;;4.88;1.25;;;18.60;58.30;;;;;;5033581;28;20275;-64
2021/05/17 11:20:44;;;;;;;1.95;1.00;;;18.60;58.40;;;;;;5032265;28;20275;-65
2021/05/17 11:23:16;;;;;;;4.22;1.10;;;18.60;58.40;;;;;;5033469;28;20179;-74
2021/05/17 11:25:45;;;;;;;5.20;1.40;;;18.60;58.30;;;;;;5033116;28;20191;-77
2021/05/17 11:28:10;;;;;;;4.60;1.70;;;18.70;58.40;;;;;;5032432;28;20180;-72
2021/05/17 11:30:38;;;;;;;2.15;1.10;;;18.80;58.40;;;;;;5032723;28;20242;-75
2021/05/17 11:33:19;;;;;;;6.47;1.50;;;18.70;58.20;;;;;;5032436;28;20212;-74
2021/05/17 11:36:09;;;;;;;3.33;1.20;;;18.70;58.20;;;;;;5032984;28;20187;-75
2021/05/17 11:38:34;;;;;;;2.55;1.25;;;18.70;58.20;;;;;;5032287;28;20178;-77
2021/05/17 11:41:00;;;;;;;3.08;1.60;;;18.70;58.30;;;;;;5015072;28;20180;-78
2021/05/17 11:43:26;;;;;;;2.30;1.30;;;18.70;58.40;;;;;;5043732;28;20171;-76
2021/05/17 11:45:52;;;;;;;2.15;1.02;;;18.70;58.40;;;;;;5054131;28;20183;-78
2021/05/17 11:48:17;;;;;;;1.70;1.13;;;18.70;58.40;;;;;;5053108;28;20167;-76
2021/05/17 11:50:44;;;;;;;2.92;1.27;;;18.70;58.30;;;;;;5052631;28;20245;-76
2021/05/17 11:53:14;;;;;;;3.80;1.15;;;18.70;58.30;;;;;;5052921;28;20176;-75
2021/05/17 11:55:50;;;;;;;1.17;0.95;;;18.70;58.20;;;;;;5051845;28;20189;-76
2021/05/17 11:58:23;;;;;;;2.75;1.23;;;18.80;58.00;;;;;;5053095;28;20228;-77
2021/05/17 12:01:08;;;;;;;1.33;0.98;;;18.90;57.90;;;;;;5052335;28;20225;-76
2021/05/17 12:03:41;;;;;;;3.75;1.25;;;18.90;57.80;;;;;;5038193;28;20182;-76
2021/05/17 12:06:06;;;;;;;1.52;0.88;;;18.90;57.80;;;;;;5052503;28;20171;-75
2021/05/17 12:08:33;;;;;;;2.25;0.85;;;19.00;58.20;;;;;;5051770;28;20175;-73
2021/05/17 12:10:58;;;;;;;2.67;1.13;;;19.10;57.60;;;;;;5035207;28;20218;-75
2021/05/17 12:13:24;;;;;;;1.83;0.90;;;19.10;57.40;;;;;;5052698;28;20258;-76
2021/05/17 12:15:49;;;;;;;3.20;1.10;;;19.20;57.40;;;;;;5051660;28;20211;-78
2021/05/17 12:18:15;;;;;;;2.15;0.93;;;19.20;57.30;;;;;;5034737;28;20167;-77
2021/05/17 12:20:40;;;;;;;1.80;0.90;;;19.20;57.40;;;;;;5052220;28;20175;-79
2021/05/17 12:23:06;;;;;;;1.67;0.80;;;19.20;57.40;;;;;;5052153;28;20167;-77
2021/05/17 12:25:32;;;;;;;1.23;1.05;;;19.20;57.30;;;;;;5052378;28;20190;-76
2021/05/17 12:27:58;;;;;;;2.05;1.00;;;19.20;57.20;;;;;;5052766;28;20206;-75
2021/05/17 12:30:25;;;;;;;0.75;0.75;;;19.30;57.00;;;;;;5051828;28;20226;-75
2021/05/17 12:32:52;;;;;;;1.65;0.73;;;19.40;56.90;;;;;;5052156;28;20187;-75
2021/05/17 12:35:20;;;;;;;2.28;1.00;;;19.40;56.90;;;;;;5052824;28;20547;-76
2021/05/17 12:37:50;;;;;;;1.35;0.95;;;19.30;57.20;;;;;;5051548;28;20171;-77
2021/05/17 12:40:18;;;;;;;1.17;0.93;;;19.10;57.40;;;;;;5053129;28;20187;-77
2021/05/17 12:42:44;;;;;;;1.63;0.80;;;19.00;57.50;;;;;;5052199;28;20685;-78
2021/05/17 12:45:12;;;;;;;1.33;0.82;;;18.90;57.70;;;;;;5052146;28;20225;-76
2021/05/17 12:47:42;;;;;;;1.80;1.13;;;18.90;57.80;;;;;;5052060;28;20171;-77
2021/05/17 12:50:32;;;;;;;1.17;0.90;;;18.80;57.90;;;;;;5055680;28;20218;-76
2021/05/17 12:53:11;;;;;;;1.30;0.85;;;18.80;58.00;;;;;;5056168;28;20305;-75
2021/05/17 12:55:43;;;;;;;1.02;0.90;;;18.80;58.10;;;;;;5038056;28;20167;-77
2021/05/17 12:58:09;;;;;;;1.02;0.70;;;18.80;58.10;;;;;;5055471;28;20221;-77
2021/05/17 13:00:42;;;;;;;0.68;0.68;;;18.70;58.10;;;;;;5056155;28;20646;-77
2021/05/17 13:03:24;;;;;;;1.30;1.05;;;18.70;58.10;;;;;;5056640;28;20163;-77
2021/05/17 13:06:07;;;;;;;1.10;0.93;;;18.80;58.20;;;;;;5055272;28;20258;-74
2021/05/17 13:08:35;;;;;;;1.00;0.73;;;18.70;58.20;;;;;;5055786;28;20175;-74
2021/05/17 13:11:24;;;;;;;0.65;0.65;;;18.70;58.10;;;;;;5055731;28;20211;-75
2021/05/17 13:13:51;;;;;;;1.08;0.75;;;18.70;58.20;;;;;;5044170;28;20175;-77
2021/05/17 13:16:28;;;;;;;0.90;0.65;;;18.70;58.00;;;;;;5055910;28;20593;-77